createdAt,value
2023-03-11T00:01:06.054Z,99.90
2023-03-11T00:03:33.592Z,99.90
2023-03-11T00:06:01.106Z,99.90
2023-03-11T00:08:28.681Z,99.90
2023-03-11T00:10:56.982Z,99.90
2023-03-11T00:13:24.518Z,99.90
2023-03-11T00:15:52.121Z,99.90
2023-03-11T00:18:19.650Z,99.90
2023-03-11T00:20:47.946Z,99.90
2023-03-11T00:23:15.644Z,99.90
2023-03-11T00:25:43.157Z,99.90
2023-03-11T00:28:13.256Z,99.90
2023-03-11T00:30:41.678Z,99.90
2023-03-11T00:33:09.129Z,99.90
2023-03-11T00:35:36.649Z,99.90
2023-03-11T00:38:15.175Z,99.90
2023-03-11T00:40:42.691Z,99.90
2023-03-11T00:43:10.214Z,99.90
2023-03-11T00:45:37.791Z,99.90
2023-03-11T00:48:05.316Z,99.90
2023-03-11T00:50:32.833Z,99.90
2023-03-11T00:53:00.444Z,99.90
2023-03-11T00:55:28.694Z,99.90
2023-03-11T00:57:56.988Z,99.90
2023-03-11T01:00:24.642Z,99.90
2023-03-11T01:02:52.155Z,99.90
2023-03-11T01:05:19.698Z,99.90
2023-03-11T01:07:47.246Z,99.90
2023-03-11T01:10:14.781Z,99.90
2023-03-11T01:12:42.317Z,99.90
2023-03-11T01:15:10.704Z,99.90
2023-03-11T01:17:38.985Z,99.90
2023-03-11T01:20:07.320Z,99.90
2023-03-11T01:22:34.908Z,99.90
2023-03-11T01:25:03.189Z,99.90
2023-03-11T01:27:31.487Z,99.90
2023-03-11T01:29:59.061Z,99.90
2023-03-11T01:32:26.627Z,99.90
2023-03-11T01:34:54.135Z,99.90
2023-03-11T01:37:22.474Z,99.90
2023-03-11T01:39:49.989Z,99.90
2023-03-11T01:42:17.523Z,99.90
2023-03-11T01:44:45.066Z,99.90
2023-03-11T01:47:12.603Z,99.90
2023-03-11T01:49:40.147Z,99.90
2023-03-11T01:52:10.475Z,99.90
2023-03-11T01:54:38.011Z,99.90
2023-03-11T01:57:08.243Z,99.90
2023-03-11T01:59:39.027Z,99.90
2023-03-11T02:02:12.253Z,99.90
2023-03-11T02:04:39.782Z,99.90
2023-03-11T02:07:07.372Z,99.90
2023-03-11T02:09:34.916Z,99.90
2023-03-11T02:12:03.235Z,99.90
2023-03-11T02:14:30.804Z,99.90
2023-03-11T02:16:58.347Z,99.90
2023-03-11T02:20:03.255Z,99.90
2023-03-11T02:22:31.548Z,99.90
2023-03-11T02:25:10.919Z,99.90
2023-03-11T02:27:38.460Z,99.90
2023-03-11T02:30:06.124Z,99.90
2023-03-11T02:32:33.753Z,99.90
2023-03-11T02:35:01.279Z,99.90
2023-03-11T02:37:28.803Z,99.90
2023-03-11T02:39:57.171Z,99.90
2023-03-11T02:42:24.737Z,99.90
2023-03-11T02:44:54.742Z,99.90
2023-03-11T02:47:22.349Z,99.90
2023-03-11T02:49:49.871Z,99.90
2023-03-11T02:52:17.392Z,99.90
2023-03-11T02:54:45.712Z,99.90
2023-03-11T02:57:13.249Z,99.90
2023-03-11T02:59:40.772Z,99.90
2023-03-11T03:02:08.375Z,99.90
2023-03-11T03:04:36.015Z,99.90
2023-03-11T03:07:03.483Z,99.90
2023-03-11T03:09:31.089Z,99.90
2023-03-11T03:11:58.641Z,99.90
2023-03-11T03:14:26.177Z,99.90
2023-03-11T03:16:53.761Z,99.90
2023-03-11T03:19:21.273Z,99.90
2023-03-11T03:21:49.571Z,99.90
2023-03-11T03:24:17.148Z,99.90
2023-03-11T03:26:44.677Z,99.90
2023-03-11T03:29:12.215Z,99.90
2023-03-11T03:31:40.537Z,99.90
2023-03-11T03:34:08.040Z,99.90
2023-03-11T03:36:35.563Z,99.90
2023-03-11T03:39:03.149Z,99.90
2023-03-11T03:41:30.675Z,99.90
2023-03-11T03:43:58.209Z,99.90
2023-03-11T03:46:25.833Z,99.90
2023-03-11T03:48:53.289Z,99.90
2023-03-11T03:51:21.591Z,99.90
2023-03-11T03:53:49.165Z,99.90
2023-03-11T03:56:16.690Z,99.90
2023-03-11T03:58:44.995Z,99.90
2023-03-11T04:01:12.612Z,99.90
2023-03-11T04:03:40.212Z,99.90
2023-03-11T04:06:10.319Z,99.90
2023-03-11T04:08:38.649Z,99.90
2023-03-11T04:11:06.176Z,99.90
2023-03-11T04:13:33.711Z,99.90
2023-03-11T04:16:02.047Z,99.90
2023-03-11T04:18:29.572Z,99.90
2023-03-11T04:20:57.119Z,99.90
2023-03-11T04:23:25.467Z,99.90
2023-03-11T04:25:53.038Z,99.90
2023-03-11T04:28:20.617Z,99.90
2023-03-11T04:30:48.983Z,99.90
2023-03-11T04:33:16.428Z,99.90
2023-03-11T04:35:44.796Z,99.90
2023-03-11T04:38:12.310Z,99.90
2023-03-11T04:40:39.836Z,99.90
2023-03-11T04:43:07.380Z,99.90
2023-03-11T04:45:35.003Z,99.90
2023-03-11T04:48:02.508Z,99.90
2023-03-11T04:50:30.802Z,99.90
2023-03-11T04:52:58.386Z,99.90
2023-03-11T04:55:25.946Z,99.90
2023-03-11T04:57:53.452Z,99.90
2023-03-11T05:00:21.776Z,99.90
2023-03-11T05:02:49.323Z,99.90
2023-03-11T05:05:16.856Z,99.90
2023-03-11T05:07:45.211Z,99.90
2023-03-11T05:10:12.751Z,99.90
2023-03-11T05:12:40.279Z,99.90
2023-03-11T05:15:08.010Z,99.90
2023-03-11T05:17:35.543Z,99.90
2023-03-11T05:20:03.101Z,99.90
2023-03-11T05:22:30.642Z,99.90
2023-03-11T05:24:58.178Z,99.90
2023-03-11T05:27:25.695Z,99.90
2023-03-11T05:29:54.365Z,99.90
2023-03-11T05:32:21.877Z,99.90
2023-03-11T05:34:49.380Z,99.90
2023-03-11T05:37:17.531Z,99.90
2023-03-11T05:39:45.035Z,99.90
2023-03-11T05:42:14.590Z,99.90
2023-03-11T05:44:41.001Z,99.90
2023-03-11T05:47:08.517Z,99.90
2023-03-11T05:49:36.046Z,99.90
2023-03-11T05:52:03.637Z,99.90
2023-03-11T05:54:31.149Z,99.90
2023-03-11T05:56:58.684Z,99.90
2023-03-11T05:59:26.257Z,99.90
2023-03-11T06:01:53.781Z,99.90
2023-03-11T06:04:22.174Z,99.90
2023-03-11T06:06:49.657Z,99.90
2023-03-11T06:09:17.195Z,99.90
2023-03-11T06:11:45.474Z,99.90
2023-03-11T06:14:13.909Z,99.90
2023-03-11T06:16:41.454Z,99.90
2023-03-11T06:19:09.422Z,99.90
2023-03-11T06:21:36.983Z,99.90
2023-03-11T06:24:04.516Z,99.90
2023-03-11T06:26:32.046Z,99.90
2023-03-11T06:29:00.395Z,99.90
2023-03-11T06:31:27.979Z,99.90
2023-03-11T06:33:58.119Z,99.90
2023-03-11T06:36:25.732Z,99.90
2023-03-11T06:38:53.250Z,99.90
2023-03-11T06:41:20.791Z,99.90
2023-03-11T06:43:49.205Z,99.90
2023-03-11T06:46:19.925Z,99.90
2023-03-11T06:48:47.367Z,99.90
2023-03-11T06:51:15.687Z,99.90
2023-03-11T06:53:43.206Z,99.90
2023-03-11T06:56:13.554Z,99.90
2023-03-11T06:58:41.129Z,99.90
2023-03-11T07:01:08.738Z,99.90
2023-03-11T07:03:36.187Z,99.90
2023-03-11T07:06:06.499Z,99.90
2023-03-11T07:08:31.397Z,99.90
2023-03-11T07:11:08.156Z,99.90
2023-03-11T07:13:35.689Z,99.90
2023-03-11T07:16:05.791Z,99.90
2023-03-11T07:18:33.296Z,99.90
2023-03-11T07:21:00.837Z,99.90
2023-03-11T07:23:28.363Z,99.90
2023-03-11T07:25:56.428Z,99.90
2023-03-11T07:28:23.963Z,99.90
2023-03-11T07:30:52.268Z,99.90
2023-03-11T07:33:19.841Z,99.90
2023-03-11T07:35:47.411Z,99.90
2023-03-11T07:38:14.898Z,99.90
2023-03-11T07:40:42.487Z,99.90
2023-03-11T07:43:10.026Z,99.90
2023-03-11T07:45:38.348Z,99.90
2023-03-11T07:48:06.915Z,99.90
2023-03-11T07:50:34.442Z,99.90
2023-03-11T07:53:02.735Z,99.90
2023-03-11T07:55:30.315Z,99.90
2023-03-11T07:57:57.849Z,99.90
2023-03-11T08:00:25.416Z,99.90
2023-03-11T08:02:53.734Z,99.90
2023-03-11T08:05:21.275Z,99.90
2023-03-11T08:07:48.800Z,99.90
2023-03-11T08:10:17.187Z,99.90
2023-03-11T08:12:44.709Z,99.90
2023-03-11T08:15:12.262Z,99.90
2023-03-11T08:17:40.211Z,99.90
2023-03-11T08:20:08.003Z,99.90
2023-03-11T08:22:36.903Z,99.90
2023-03-11T08:25:03.159Z,99.90
2023-03-11T08:27:30.694Z,99.90
2023-03-11T08:29:59.017Z,99.90
2023-03-11T08:32:26.680Z,99.90
2023-03-11T08:34:54.156Z,99.90
2023-03-11T08:37:24.270Z,99.90
2023-03-11T08:39:49.550Z,99.90
2023-03-11T08:42:17.067Z,99.90
2023-03-11T08:44:44.600Z,99.90
2023-03-11T08:47:12.173Z,99.90
2023-03-11T08:49:39.721Z,99.90
2023-03-11T08:52:07.252Z,99.90
2023-03-11T08:54:34.827Z,99.90
2023-03-11T08:57:02.351Z,99.90
2023-03-11T08:59:29.886Z,99.90
2023-03-11T09:01:58.218Z,99.90
2023-03-11T09:04:25.761Z,99.90
2023-03-11T09:06:53.283Z,99.90
2023-03-11T09:09:21.618Z,99.90
2023-03-11T09:11:49.143Z,99.90
2023-03-11T09:14:16.676Z,99.90
2023-03-11T09:16:45.031Z,99.90
2023-03-11T09:19:12.558Z,99.90
2023-03-11T09:21:40.093Z,99.90
2023-03-11T09:24:07.655Z,99.90
2023-03-11T09:26:35.180Z,99.90
2023-03-11T09:29:03.471Z,99.90
2023-03-11T09:31:31.841Z,99.90
2023-03-11T09:33:59.355Z,99.90
2023-03-11T09:36:26.865Z,99.90
2023-03-11T09:38:55.208Z,99.90
2023-03-11T09:41:57.478Z,99.90
2023-03-11T09:44:38.666Z,99.90
2023-03-11T09:47:30.319Z,99.90
2023-03-11T09:50:09.828Z,99.90
2023-03-11T09:52:43.063Z,99.90
2023-03-11T09:55:13.345Z,99.90
2023-03-11T09:57:40.937Z,99.50
2023-03-11T10:00:08.827Z,98.70
2023-03-11T10:02:36.480Z,99.30
2023-03-11T10:05:04.704Z,97.50
2023-03-11T10:07:32.246Z,97.50
2023-03-11T10:09:59.746Z,96.40
2023-03-11T10:12:49.573Z,95.90
2023-03-11T10:15:29.742Z,95.40
2023-03-11T10:18:06.257Z,95.40
2023-03-11T10:20:46.606Z,94.90
2023-03-11T10:23:20.755Z,94.20
2023-03-11T10:25:57.629Z,93.80
2023-03-11T10:28:32.004Z,93.20
2023-03-11T10:31:02.218Z,93.20
2023-03-11T10:33:38.597Z,92.80
2023-03-11T10:36:11.874Z,92.70
2023-03-11T10:38:42.416Z,91.70
2023-03-11T10:41:18.489Z,91.50
2023-03-11T10:43:49.860Z,91.80
2023-03-11T10:46:20.308Z,91.80
2023-03-11T10:48:47.846Z,92.20
2023-03-11T10:51:21.595Z,92.40
2023-03-11T10:53:51.766Z,91.50
2023-03-11T10:56:28.027Z,91.20
2023-03-11T10:58:55.550Z,89.60
2023-03-11T11:01:23.094Z,89.50
2023-03-11T11:03:50.702Z,90.00
2023-03-11T11:06:33.324Z,90.20
2023-03-11T11:09:18.685Z,90.00
2023-03-11T11:12:02.099Z,87.60
2023-03-11T11:14:47.755Z,87.50
2023-03-11T11:17:17.982Z,87.70
2023-03-11T11:19:45.512Z,88.70
2023-03-11T11:22:13.350Z,88.30
2023-03-11T11:24:41.651Z,87.70
2023-03-11T11:27:12.090Z,87.60
2023-03-11T11:29:39.667Z,87.70
2023-03-11T11:32:15.930Z,87.10
2023-03-11T11:34:43.483Z,86.10
2023-03-11T11:37:11.017Z,85.20
2023-03-11T11:39:50.112Z,84.60
2023-03-11T11:42:17.632Z,83.10
2023-03-11T11:44:45.164Z,82.80
2023-03-11T11:47:12.740Z,82.80
2023-03-11T11:49:40.290Z,83.50
2023-03-11T11:52:13.485Z,83.60
2023-03-11T11:54:41.059Z,83.90
2023-03-11T11:57:11.319Z,83.50
2023-03-11T11:59:39.613Z,83.30
2023-03-11T12:02:21.968Z,83.30
2023-03-11T12:05:10.421Z,82.80
2023-03-11T12:07:55.986Z,82.40
2023-03-11T12:10:38.220Z,80.90
2023-03-11T12:13:27.988Z,80.70
2023-03-11T12:16:01.309Z,80.90
2023-03-11T12:18:50.356Z,79.60
2023-03-11T12:21:23.741Z,78.40
2023-03-11T12:23:57.146Z,77.60
2023-03-11T12:26:24.701Z,77.70
2023-03-11T12:29:15.723Z,77.40
2023-03-11T12:31:40.752Z,77.60
2023-03-11T12:34:08.204Z,77.60
2023-03-11T12:36:35.790Z,77.80
2023-03-11T12:39:03.310Z,77.00
2023-03-11T12:41:31.655Z,76.00
2023-03-11T12:43:59.487Z,76.00
2023-03-11T12:46:45.340Z,75.80
2023-03-11T12:49:12.874Z,76.00
2023-03-11T12:51:40.412Z,76.80
2023-03-11T12:54:35.232Z,76.50
2023-03-11T12:57:17.914Z,75.50
2023-03-11T13:00:22.692Z,75.00
2023-03-11T13:02:59.059Z,75.20
2023-03-11T13:05:51.350Z,75.80
2023-03-11T13:08:37.068Z,75.50
2023-03-11T13:11:04.632Z,75.40
2023-03-11T13:13:34.746Z,74.60
2023-03-11T13:16:14.330Z,74.80
2023-03-11T13:18:41.790Z,73.30
2023-03-11T13:21:27.750Z,70.00
2023-03-11T13:24:20.007Z,70.30
2023-03-11T13:27:01.830Z,71.20
2023-03-11T13:29:49.627Z,71.20
2023-03-11T13:32:41.427Z,70.20
2023-03-11T13:35:23.869Z,69.90
2023-03-11T13:38:22.776Z,70.50
2023-03-11T13:40:50.302Z,70.40
2023-03-11T13:43:17.825Z,69.40
2023-03-11T13:45:54.341Z,69.90
2023-03-11T13:48:21.871Z,69.40
2023-03-11T13:50:49.400Z,69.50
2023-03-11T13:53:26.041Z,68.60
2023-03-11T13:55:53.581Z,68.00
2023-03-11T13:58:24.000Z,69.20
2023-03-11T14:00:54.608Z,69.00
2023-03-11T14:03:22.064Z,68.10
2023-03-11T14:05:50.321Z,70.20
2023-03-11T14:08:29.868Z,70.20
2023-03-11T14:11:00.124Z,70.10
2023-03-11T14:13:30.499Z,70.00
2023-03-11T14:15:58.219Z,69.40
2023-03-11T14:18:43.494Z,68.30
2023-03-11T14:21:17.919Z,68.30
2023-03-11T14:23:48.986Z,67.50
2023-03-11T14:26:16.528Z,68.10
2023-03-11T14:28:45.233Z,68.80
2023-03-11T14:31:25.243Z,69.60
2023-03-11T14:34:04.700Z,69.40
2023-03-11T14:36:32.144Z,68.80
2023-03-11T14:38:59.798Z,68.90
2023-03-11T14:41:27.556Z,68.90
2023-03-11T14:43:55.060Z,70.00
2023-03-11T14:46:22.685Z,69.60
2023-03-11T14:48:50.948Z,68.20
2023-03-11T14:51:21.310Z,68.20
2023-03-11T14:54:07.186Z,68.50
2023-03-11T14:56:34.712Z,67.10
2023-03-11T14:59:09.652Z,67.20
2023-03-11T15:01:35.613Z,67.80
2023-03-11T15:04:08.817Z,67.70
2023-03-11T15:06:37.083Z,67.20
2023-03-11T15:09:14.073Z,67.60
2023-03-11T15:26:00.623Z,65.20
2023-03-11T15:28:28.109Z,63.50
2023-03-11T15:31:23.826Z,63.30
2023-03-11T15:33:52.120Z,63.60
2023-03-11T15:36:31.588Z,62.80
2023-03-11T15:39:32.677Z,64.10
2023-03-11T15:42:06.306Z,64.40
2023-03-11T15:44:36.576Z,64.10
2023-03-11T15:47:04.065Z,64.20
2023-03-11T15:49:31.598Z,64.30
2023-03-11T15:51:59.197Z,64.40
2023-03-11T15:54:26.715Z,64.40
2023-03-11T15:56:54.268Z,64.40
2023-03-11T15:59:21.772Z,64.00
2023-03-11T16:01:50.063Z,63.80
2023-03-11T16:04:17.748Z,63.80
2023-03-11T16:18:02.680Z,59.20
2023-03-11T16:20:30.230Z,58.50
2023-03-11T16:22:57.757Z,58.30
2023-03-11T16:25:28.465Z,58.50
2023-03-11T16:27:56.743Z,58.80
2023-03-11T16:30:25.064Z,58.70
2023-03-11T16:32:52.689Z,58.60
2023-03-11T16:35:20.169Z,58.50
2023-03-11T16:37:47.682Z,59.50
2023-03-11T16:40:15.251Z,59.50
2023-03-11T16:42:42.771Z,59.50
2023-03-11T16:45:10.320Z,60.10
2023-03-11T16:47:37.918Z,60.20
2023-03-11T16:50:05.526Z,60.90
2023-03-11T16:52:33.089Z,61.20
2023-03-11T16:57:30.916Z,62.00
2023-03-11T16:59:58.442Z,62.50
2023-03-11T17:02:25.962Z,62.60
2023-03-11T17:04:53.631Z,62.30
2023-03-11T17:07:21.106Z,63.30
2023-03-11T17:09:48.634Z,63.50
2023-03-11T17:12:16.995Z,64.80
2023-03-11T17:14:44.546Z,64.80
2023-03-11T17:17:12.044Z,65.30
2023-03-11T17:19:40.223Z,66.00
2023-03-11T17:22:07.752Z,66.60
2023-03-11T17:24:35.271Z,66.70
2023-03-11T17:27:02.849Z,67.70
2023-03-11T17:29:30.385Z,67.80
2023-03-11T17:31:57.941Z,67.80
2023-03-11T17:34:25.911Z,67.40
2023-03-11T17:36:53.433Z,67.90
2023-03-11T17:39:21.740Z,68.80
2023-03-11T17:41:49.696Z,69.50
2023-03-11T17:44:17.223Z,69.40
2023-03-11T17:46:45.592Z,70.40
2023-03-11T17:49:13.849Z,70.90
2023-03-11T17:51:41.377Z,70.80
2023-03-11T17:54:08.916Z,71.20
2023-03-11T17:56:36.910Z,71.70
2023-03-11T17:59:04.442Z,72.40
2023-03-11T18:01:32.021Z,73.40
2023-03-11T18:03:59.653Z,74.20
2023-03-11T18:06:27.115Z,75.30
2023-03-11T18:08:54.646Z,76.10
2023-03-11T18:11:25.430Z,78.10
2023-03-11T18:13:52.960Z,77.50
2023-03-11T18:16:21.322Z,78.90
2023-03-11T18:18:48.914Z,78.80
2023-03-11T18:21:19.113Z,79.20
2023-03-11T18:23:47.403Z,80.00
2023-03-11T18:26:14.990Z,79.90
2023-03-11T18:28:42.513Z,80.60
2023-03-11T18:31:10.051Z,80.90
2023-03-11T18:33:37.698Z,81.30
2023-03-11T18:36:11.058Z,81.60
2023-03-11T18:38:39.369Z,82.50
2023-03-11T18:41:06.931Z,82.50
2023-03-11T18:43:34.480Z,83.00
2023-03-11T18:46:02.026Z,83.50
2023-03-11T18:48:29.609Z,84.70
2023-03-11T18:50:57.131Z,84.20
2023-03-11T18:53:24.668Z,84.50
2023-03-11T18:55:52.222Z,85.00
2023-03-11T18:58:19.742Z,85.50
2023-03-11T19:00:47.346Z,86.10
2023-03-11T19:03:14.827Z,86.70
2023-03-11T19:05:50.962Z,87.60
2023-03-11T19:08:18.093Z,87.10
2023-03-11T19:10:46.433Z,87.90
2023-03-11T19:13:13.978Z,88.10
2023-03-11T19:15:41.621Z,88.80
2023-03-11T19:18:09.203Z,89.50
2023-03-11T19:20:36.727Z,88.80
2023-03-11T19:23:05.031Z,90.00
2023-03-11T19:25:32.631Z,90.00
2023-03-11T19:28:00.313Z,90.30
2023-03-11T19:30:27.832Z,90.70
2023-03-11T19:32:55.469Z,90.90
2023-03-11T19:35:22.929Z,91.00
2023-03-11T19:37:50.473Z,91.50
2023-03-11T19:40:18.049Z,91.90
2023-03-11T19:42:45.672Z,92.30
2023-03-11T19:45:13.165Z,92.80
2023-03-11T19:47:40.759Z,93.40
2023-03-11T19:50:08.396Z,94.00
2023-03-11T19:52:35.916Z,94.40
2023-03-11T19:55:03.491Z,94.80
2023-03-11T19:57:31.042Z,95.20
2023-03-11T19:59:59.349Z,96.20
2023-03-11T20:02:27.354Z,96.20
2023-03-11T20:04:55.657Z,96.80
2023-03-11T20:07:23.157Z,96.80
2023-03-11T20:09:50.721Z,97.10
2023-03-11T20:12:18.324Z,97.30
2023-03-11T20:14:45.813Z,97.50
2023-03-11T20:17:13.406Z,97.70
2023-03-11T20:19:40.973Z,98.00
2023-03-11T20:22:08.455Z,98.10
2023-03-11T20:24:36.786Z,98.70
2023-03-11T20:27:04.356Z,98.70
2023-03-11T20:29:31.907Z,98.80
2023-03-11T20:32:00.280Z,99.10
2023-03-11T20:34:27.770Z,99.10
2023-03-11T20:36:55.337Z,99.40
2023-03-11T20:39:22.890Z,99.60
2023-03-11T20:41:50.451Z,99.80
2023-03-11T20:44:17.902Z,99.80
2023-03-11T20:46:45.540Z,99.90
2023-03-11T20:49:13.046Z,99.90
2023-03-11T20:51:42.063Z,99.90
2023-03-11T20:54:09.009Z,99.90
2023-03-11T20:56:36.501Z,99.90
2023-03-11T20:59:05.372Z,99.90
2023-03-11T21:01:32.425Z,99.90
2023-03-11T21:04:00.019Z,99.90
2023-03-11T21:06:29.950Z,99.90
2023-03-11T21:08:57.463Z,99.90
2023-03-11T21:11:25.035Z,99.90
2023-03-11T21:13:52.594Z,99.90
2023-03-11T21:16:20.220Z,99.90
2023-03-11T21:18:49.466Z,99.90
2023-03-11T21:21:15.225Z,99.90
2023-03-11T21:23:42.866Z,99.90
2023-03-11T21:26:10.333Z,99.90
2023-03-11T21:28:37.887Z,99.90
2023-03-11T21:31:11.882Z,99.90
2023-03-11T21:33:39.325Z,99.90
2023-03-11T21:36:06.953Z,99.90
2023-03-11T21:38:35.660Z,99.90
2023-03-11T21:41:06.040Z,99.90
2023-03-11T21:43:34.326Z,99.90
2023-03-11T21:46:02.018Z,99.90
2023-03-11T21:48:29.442Z,99.90
2023-03-11T21:50:57.069Z,99.90
2023-03-11T21:53:25.347Z,99.90
2023-03-11T21:55:53.006Z,99.90
2023-03-11T21:58:20.492Z,99.90
2023-03-11T22:00:48.777Z,99.90
2023-03-11T22:03:16.275Z,99.90
2023-03-11T22:05:43.786Z,99.90
2023-03-11T22:08:12.145Z,99.90
2023-03-11T22:13:16.695Z,99.90
2023-03-11T22:15:44.169Z,99.90
2023-03-11T22:18:11.776Z,99.90
2023-03-11T22:20:42.272Z,99.90
2023-03-11T22:23:09.686Z,99.90
2023-03-11T22:25:37.221Z,99.90
2023-03-11T22:28:05.584Z,99.90
2023-03-11T22:30:33.137Z,99.90
2023-03-11T22:33:00.680Z,99.90
2023-03-11T22:35:28.253Z,99.90
2023-03-11T22:37:55.789Z,99.90
2023-03-11T22:40:23.319Z,99.90
2023-03-11T22:42:51.645Z,99.90
2023-03-11T22:45:19.187Z,99.90
2023-03-11T22:47:46.759Z,99.90
2023-03-11T22:50:14.712Z,99.90
2023-03-11T22:52:42.227Z,99.90
2023-03-11T22:55:10.691Z,99.90
2023-03-11T22:57:38.254Z,99.90
2023-03-11T23:00:05.777Z,99.90
2023-03-11T23:02:33.303Z,99.90
2023-03-11T23:05:01.656Z,99.90
2023-03-11T23:07:29.187Z,99.90
2023-03-11T23:09:56.725Z,99.90
2023-03-11T23:12:24.339Z,99.90
2023-03-11T23:14:52.649Z,99.90
2023-03-11T23:17:20.175Z,99.90
2023-03-11T23:19:48.529Z,99.90
2023-03-11T23:22:16.068Z,99.90
2023-03-11T23:24:43.597Z,99.90
2023-03-11T23:27:11.201Z,99.90
2023-03-11T23:29:38.757Z,99.90
2023-03-11T23:32:06.362Z,99.90
2023-03-11T23:34:34.695Z,99.90
2023-03-11T23:37:05.289Z,99.90
2023-03-11T23:39:29.772Z,99.90
2023-03-11T23:42:18.426Z,99.90
2023-03-11T23:44:31.534Z,99.90
2023-03-11T23:46:59.067Z,99.90
2023-03-11T23:49:26.672Z,99.90
2023-03-11T23:51:54.935Z,99.90
2023-03-11T23:54:22.462Z,99.90
2023-03-11T23:56:50.057Z,99.90
2023-03-11T23:59:17.585Z,99.90
